createdAt,value
2018-05-11T00:00:57.148Z,14.50
2018-05-11T00:02:00.476Z,14.50
2018-05-11T00:03:02.996Z,14.50
2018-05-11T00:04:05.565Z,14.60
2018-05-11T00:05:08.864Z,14.60
2018-05-11T00:06:11.394Z,14.60
2018-05-11T00:07:13.920Z,14.60
2018-05-11T00:08:16.485Z,14.60
2018-05-11T00:09:19.004Z,14.60
2018-05-11T00:10:22.342Z,14.60
2018-05-11T00:11:24.872Z,14.60
2018-05-11T00:12:27.392Z,14.60
2018-05-11T00:13:30.681Z,14.50
2018-05-11T00:14:33.208Z,14.50
2018-05-11T00:15:35.778Z,14.60
2018-05-11T00:16:38.319Z,14.60
2018-05-11T00:17:40.857Z,14.60
2018-05-11T00:18:43.464Z,14.60
2018-05-11T00:19:45.991Z,14.50
2018-05-11T00:20:48.576Z,14.50
2018-05-11T00:21:51.865Z,14.40
2018-05-11T00:22:55.156Z,14.40
2018-05-11T00:23:57.671Z,14.40
2018-05-11T00:25:00.203Z,14.40
2018-05-11T00:26:02.784Z,14.40
2018-05-11T00:27:05.307Z,14.40
2018-05-11T00:28:08.599Z,14.40
2018-05-11T00:29:11.200Z,14.40
2018-05-11T00:30:13.732Z,14.40
2018-05-11T00:31:17.025Z,14.50
2018-05-11T00:32:19.555Z,14.50
2018-05-11T00:33:22.096Z,14.40
2018-05-11T00:34:24.657Z,14.40
2018-05-11T00:35:27.194Z,14.40
2018-05-11T00:36:29.756Z,14.40
2018-05-11T00:37:32.280Z,14.50
2018-05-11T00:38:34.805Z,14.50
2018-05-11T00:39:37.339Z,14.60
2018-05-11T00:40:40.664Z,14.60
2018-05-11T00:41:43.186Z,14.60
2018-05-11T00:42:46.483Z,14.60
2018-05-11T00:43:49.016Z,14.60
2018-05-11T00:44:51.544Z,14.50
2018-05-11T00:45:54.097Z,14.60
2018-05-11T00:46:56.641Z,14.60
2018-05-11T00:47:59.976Z,14.60
2018-05-11T00:49:02.516Z,14.60
2018-05-11T00:50:05.044Z,14.50
2018-05-11T00:51:07.634Z,14.50
2018-05-11T00:52:10.121Z,14.50
2018-05-11T00:53:12.686Z,14.50
2018-05-11T00:54:15.214Z,14.40
2018-05-11T00:55:30.355Z,14.40
2018-05-11T00:56:32.877Z,14.40
2018-05-11T00:57:35.397Z,14.40
2018-05-11T00:58:37.967Z,14.50
2018-05-11T00:59:40.497Z,14.50
2018-05-11T01:00:43.016Z,14.60
2018-05-11T01:01:46.310Z,14.60
2018-05-11T01:02:48.839Z,14.50
2018-05-11T01:03:51.408Z,14.50
2018-05-11T01:04:53.937Z,14.50
2018-05-11T01:05:56.472Z,14.50
2018-05-11T01:06:58.999Z,14.60
2018-05-11T01:08:01.545Z,14.60
2018-05-11T01:09:04.109Z,14.60
2018-05-11T01:10:06.631Z,14.50
2018-05-11T01:11:09.154Z,14.50
2018-05-11T01:12:11.682Z,14.50
2018-05-11T01:13:14.204Z,14.40
2018-05-11T01:14:16.817Z,14.30
2018-05-11T01:15:19.389Z,14.40
2018-05-11T01:16:21.917Z,14.40
2018-05-11T01:17:25.208Z,14.50
2018-05-11T01:18:28.495Z,14.50
2018-05-11T01:19:31.033Z,14.50
2018-05-11T01:20:33.605Z,14.50
2018-05-11T01:21:36.141Z,14.50
2018-05-11T01:22:38.671Z,14.50
2018-05-11T01:23:41.249Z,14.50
2018-05-11T01:24:44.508Z,14.40
2018-05-11T01:25:47.827Z,14.40
2018-05-11T01:26:50.347Z,14.40
2018-05-11T01:27:53.657Z,14.40
2018-05-11T01:28:56.188Z,14.40
2018-05-11T01:29:58.715Z,14.40
2018-05-11T01:31:01.280Z,14.50
2018-05-11T01:32:03.804Z,14.50
2018-05-11T01:33:07.093Z,14.30
2018-05-11T01:34:10.393Z,14.20
2018-05-11T01:35:12.943Z,14.20
2018-05-11T01:36:16.271Z,14.30
2018-05-11T01:37:18.835Z,14.30
2018-05-11T01:38:21.365Z,14.30
2018-05-11T01:39:23.941Z,14.40
2018-05-11T01:40:26.468Z,14.30
2018-05-11T01:41:29.029Z,14.30
2018-05-11T01:42:31.572Z,14.30
2018-05-11T01:43:34.112Z,14.30
2018-05-11T01:44:36.644Z,14.20
2018-05-11T01:45:39.938Z,14.10
2018-05-11T01:46:43.285Z,14.10
2018-05-11T01:47:45.827Z,14.10
2018-05-11T01:48:48.355Z,13.90
2018-05-11T01:49:50.913Z,13.80
2018-05-11T01:50:54.211Z,13.80
2018-05-11T01:51:56.791Z,13.80
2018-05-11T01:52:59.413Z,13.70
2018-05-11T01:54:02.030Z,13.70
2018-05-11T01:55:04.562Z,13.70
2018-05-11T01:56:07.100Z,13.70
2018-05-11T01:57:09.624Z,13.70
2018-05-11T01:58:12.169Z,13.70
2018-05-11T01:59:15.501Z,13.70
2018-05-11T02:00:18.074Z,13.70
2018-05-11T02:01:20.609Z,13.70
2018-05-11T02:02:23.145Z,13.80
2018-05-11T02:03:26.440Z,13.80
2018-05-11T02:04:29.736Z,13.70
2018-05-11T02:05:32.302Z,13.70
2018-05-11T02:06:35.587Z,13.70
2018-05-11T02:07:38.103Z,13.70
2018-05-11T02:08:40.629Z,13.70
2018-05-11T02:09:43.166Z,13.70
2018-05-11T02:10:46.488Z,13.50
2018-05-11T02:11:49.020Z,13.60
2018-05-11T02:12:52.316Z,13.60
2018-05-11T02:13:55.605Z,13.60
2018-05-11T02:14:58.175Z,13.60
2018-05-11T02:16:00.734Z,13.70
2018-05-11T02:17:03.278Z,13.70
2018-05-11T02:18:06.581Z,13.80
2018-05-11T02:19:09.877Z,13.90
2018-05-11T02:20:12.404Z,13.80
2018-05-11T02:21:14.960Z,13.80
2018-05-11T02:22:17.498Z,13.80
2018-05-11T02:23:20.029Z,13.80
2018-05-11T02:24:23.323Z,13.80
2018-05-11T02:25:25.864Z,13.80
2018-05-11T02:26:29.187Z,13.80
2018-05-11T02:27:31.731Z,13.80
2018-05-11T02:28:35.029Z,13.80
2018-05-11T02:29:37.558Z,13.80
2018-05-11T02:30:40.867Z,13.80
2018-05-11T02:31:43.453Z,13.80
2018-05-11T02:32:45.996Z,13.80
2018-05-11T02:33:49.309Z,13.90
2018-05-11T02:34:51.849Z,13.90
2018-05-11T02:35:55.148Z,13.90
2018-05-11T02:36:57.716Z,13.90
2018-05-11T02:38:00.251Z,13.90
2018-05-11T02:39:03.548Z,13.90
2018-05-11T02:40:06.088Z,13.90
2018-05-11T02:41:08.654Z,13.90
2018-05-11T02:42:11.189Z,13.90
2018-05-11T02:43:14.475Z,13.90
2018-05-11T02:44:17.044Z,13.90
2018-05-11T02:45:19.576Z,13.90
2018-05-11T02:46:22.102Z,13.90
2018-05-11T02:47:24.640Z,13.90
2018-05-11T02:48:27.213Z,13.90
2018-05-11T02:49:29.744Z,13.80
2018-05-11T02:50:32.278Z,13.80
2018-05-11T02:51:35.593Z,13.70
2018-05-11T02:52:38.129Z,13.70
2018-05-11T02:53:41.469Z,13.70
2018-05-11T02:54:44.008Z,13.70
2018-05-11T02:55:46.545Z,13.70
2018-05-11T02:56:49.861Z,13.80
2018-05-11T02:57:52.428Z,13.70
2018-05-11T02:58:54.996Z,13.80
2018-05-11T02:59:57.523Z,13.80
2018-05-11T03:01:00.058Z,13.80
2018-05-11T03:02:02.593Z,13.80
2018-05-11T03:03:05.128Z,13.80
2018-05-11T03:04:08.478Z,13.90
2018-05-11T03:05:11.010Z,13.90
2018-05-11T03:06:13.545Z,13.80
2018-05-11T03:07:16.827Z,13.90
2018-05-11T03:08:19.373Z,13.90
2018-05-11T03:09:21.952Z,13.90
2018-05-11T03:10:24.592Z,13.90
2018-05-11T03:11:27.032Z,13.80
2018-05-11T03:12:29.594Z,13.90
2018-05-11T03:13:32.136Z,13.80
2018-05-11T03:14:35.487Z,13.70
2018-05-11T03:15:38.044Z,13.70
2018-05-11T03:16:40.559Z,13.60
2018-05-11T03:17:43.853Z,13.50
2018-05-11T03:18:46.469Z,13.50
2018-05-11T03:19:49.749Z,13.40
2018-05-11T03:20:52.306Z,13.40
2018-05-11T03:21:54.833Z,13.40
2018-05-11T03:22:58.129Z,13.30
2018-05-11T03:24:00.659Z,13.30
2018-05-11T03:25:03.246Z,13.30
2018-05-11T03:26:05.796Z,13.20
2018-05-11T03:27:08.328Z,13.30
2018-05-11T03:28:10.864Z,13.20
2018-05-11T03:29:13.405Z,13.30
2018-05-11T03:30:15.967Z,13.30
2018-05-11T03:31:19.268Z,13.30
2018-05-11T03:32:21.797Z,13.20
2018-05-11T03:33:24.328Z,13.30
2018-05-11T03:34:26.891Z,13.20
2018-05-11T03:35:29.467Z,13.20
2018-05-11T03:36:31.993Z,13.20
2018-05-11T03:37:35.292Z,13.10
2018-05-11T03:38:37.821Z,13.10
2018-05-11T03:39:40.344Z,13.10
2018-05-11T03:40:42.918Z,13.00
2018-05-11T03:41:45.449Z,13.10
2018-05-11T03:42:47.985Z,13.10
2018-05-11T03:43:50.560Z,13.10
2018-05-11T03:44:53.901Z,13.00
2018-05-11T03:45:56.427Z,13.00
2018-05-11T03:46:58.990Z,13.00
2018-05-11T03:48:02.297Z,13.00
2018-05-11T03:49:04.828Z,13.00
2018-05-11T03:50:08.168Z,12.90
2018-05-11T03:51:10.694Z,12.90
2018-05-11T03:52:13.988Z,12.90
2018-05-11T03:53:16.517Z,12.90
2018-05-11T03:54:19.061Z,12.90
2018-05-11T03:55:21.641Z,13.00
2018-05-11T03:56:24.174Z,13.00
2018-05-11T03:57:26.700Z,13.00
2018-05-11T03:58:30.001Z,13.10
2018-05-11T03:59:32.540Z,13.10
2018-05-11T04:00:35.884Z,13.10
2018-05-11T04:01:50.219Z,13.10
2018-05-11T04:03:04.480Z,13.10
2018-05-11T04:05:55.309Z,13.20
2018-05-11T04:08:45.720Z,13.30
2018-05-11T04:09:49.045Z,13.40
2018-05-11T04:10:51.576Z,13.40
2018-05-11T04:11:54.876Z,13.50
2018-05-11T04:12:57.447Z,13.50
2018-05-11T04:13:59.979Z,13.40
2018-05-11T04:15:02.508Z,13.40
2018-05-11T04:16:05.054Z,13.40
2018-05-11T04:17:07.585Z,13.30
2018-05-11T04:18:10.945Z,13.20
2018-05-11T04:19:13.483Z,13.20
2018-05-11T04:20:16.019Z,13.30
2018-05-11T04:21:18.548Z,13.30
2018-05-11T04:22:21.860Z,13.20
2018-05-11T04:23:25.203Z,13.20
2018-05-11T04:24:27.740Z,13.20
2018-05-11T04:25:30.263Z,13.10
2018-05-11T04:26:33.561Z,13.00
2018-05-11T04:27:36.864Z,13.00
2018-05-11T04:28:39.443Z,13.00
2018-05-11T04:29:41.970Z,13.10
2018-05-11T04:30:45.274Z,13.10
2018-05-11T04:31:47.811Z,13.10
2018-05-11T04:32:51.114Z,13.20
2018-05-11T04:33:54.464Z,13.30
2018-05-11T04:34:57.086Z,13.30
2018-05-11T04:35:59.625Z,13.40
2018-05-11T04:37:02.166Z,13.50
2018-05-11T04:38:04.689Z,13.50
2018-05-11T04:39:07.250Z,13.50
2018-05-11T04:40:09.785Z,13.60
2018-05-11T04:41:13.075Z,13.80
2018-05-11T04:42:16.374Z,13.80
2018-05-11T04:43:18.911Z,13.70
2018-05-11T04:44:21.467Z,13.80
2018-05-11T04:45:24.011Z,13.80
2018-05-11T04:46:26.548Z,13.80
2018-05-11T04:47:29.075Z,13.90
2018-05-11T04:48:31.613Z,13.90
2018-05-11T04:49:34.188Z,13.90
2018-05-11T04:50:36.721Z,13.90
2018-05-11T04:51:39.250Z,13.90
2018-05-11T04:52:42.588Z,13.90
2018-05-11T04:53:45.118Z,13.90
2018-05-11T04:54:47.661Z,13.90
2018-05-11T04:55:50.961Z,13.90
2018-05-11T04:56:54.287Z,13.90
2018-05-11T04:57:56.856Z,13.90
2018-05-11T04:58:59.389Z,13.90
2018-05-11T05:00:01.929Z,13.90
2018-05-11T05:01:05.238Z,14.00
2018-05-11T05:02:07.815Z,13.90
2018-05-11T05:03:10.382Z,14.00
2018-05-11T05:04:12.933Z,14.00
2018-05-11T05:05:15.463Z,14.00
2018-05-11T05:06:18.033Z,14.00
2018-05-11T05:07:20.571Z,14.00
2018-05-11T05:08:23.104Z,14.10
2018-05-11T05:09:25.680Z,14.10
2018-05-11T05:10:28.951Z,14.10
2018-05-11T05:11:31.514Z,14.10
2018-05-11T05:12:34.815Z,14.10
2018-05-11T05:13:37.343Z,14.10
2018-05-11T05:14:39.874Z,14.10
2018-05-11T05:15:42.407Z,14.10
2018-05-11T05:16:44.991Z,14.20
2018-05-11T05:17:47.533Z,14.20
2018-05-11T05:18:50.068Z,14.30
2018-05-11T05:19:52.641Z,14.30
2018-05-11T05:20:55.200Z,14.30
2018-05-11T05:21:57.734Z,14.30
2018-05-11T05:23:00.264Z,14.30
2018-05-11T05:24:02.791Z,14.30
2018-05-11T05:25:05.328Z,14.40
2018-05-11T05:26:07.951Z,14.50
2018-05-11T05:27:10.447Z,14.40
2018-05-11T05:28:12.987Z,14.30
2018-05-11T05:29:16.276Z,14.40
2018-05-11T05:30:19.574Z,14.50
2018-05-11T05:31:22.139Z,14.50
2018-05-11T05:32:24.667Z,14.50
2018-05-11T05:33:27.971Z,14.60
2018-05-11T05:34:31.301Z,14.50
2018-05-11T05:35:33.831Z,14.50
2018-05-11T05:36:36.367Z,14.50
2018-05-11T05:37:38.931Z,14.50
2018-05-11T05:38:41.472Z,14.60
2018-05-11T05:39:43.995Z,14.60
2018-05-11T05:40:46.527Z,14.70
2018-05-11T05:41:49.069Z,14.70
2018-05-11T05:42:51.628Z,14.70
2018-05-11T05:43:54.164Z,14.60
2018-05-11T05:44:56.704Z,14.60
2018-05-11T05:46:00.007Z,14.60
2018-05-11T05:47:02.570Z,14.60
2018-05-11T05:48:05.871Z,14.70
2018-05-11T05:49:08.404Z,14.70
2018-05-11T05:50:11.735Z,14.70
2018-05-11T05:51:14.272Z,14.70
2018-05-11T05:52:16.813Z,14.50
2018-05-11T05:53:19.361Z,14.40
2018-05-11T05:54:21.929Z,14.40
2018-05-11T05:55:24.465Z,14.40
2018-05-11T05:56:27.040Z,14.50
2018-05-11T05:57:29.578Z,14.60
2018-05-11T05:58:32.149Z,14.50
2018-05-11T05:59:34.687Z,14.50
2018-05-11T06:00:37.235Z,14.70
2018-05-11T06:01:39.774Z,14.70
2018-05-11T06:02:42.308Z,14.70
2018-05-11T06:03:44.871Z,14.70
2018-05-11T06:04:48.176Z,14.50
2018-05-11T06:05:50.763Z,14.50
2018-05-11T06:06:53.293Z,14.40
2018-05-11T06:07:55.836Z,14.40
2018-05-11T06:08:59.133Z,14.50
2018-05-11T06:10:02.431Z,14.50
2018-05-11T06:11:05.008Z,14.50
2018-05-11T06:12:07.552Z,14.40
2018-05-11T06:13:10.856Z,14.60
2018-05-11T06:14:13.430Z,14.50
2018-05-11T06:15:15.956Z,14.60
2018-05-11T06:16:19.268Z,14.60
2018-05-11T06:17:21.794Z,14.50
2018-05-11T06:18:24.328Z,14.60
2018-05-11T06:19:26.898Z,14.50
2018-05-11T06:20:29.420Z,14.30
2018-05-11T06:21:32.722Z,14.20
2018-05-11T06:22:35.277Z,14.20
2018-05-11T06:23:37.819Z,14.20
2018-05-11T06:24:40.397Z,14.20
2018-05-11T06:25:43.700Z,14.50
2018-05-11T06:26:46.249Z,14.50
2018-05-11T06:27:49.544Z,14.50
2018-05-11T06:28:52.110Z,14.40
2018-05-11T06:29:54.681Z,14.30
2018-05-11T06:30:57.240Z,14.40
2018-05-11T06:32:00.576Z,14.50
2018-05-11T06:33:03.112Z,14.40
2018-05-11T06:34:05.656Z,14.60
2018-05-11T06:35:08.989Z,14.70
2018-05-11T06:36:11.516Z,14.70
2018-05-11T06:37:14.082Z,14.80
2018-05-11T06:38:16.647Z,14.90
2018-05-11T06:39:19.198Z,14.90
2018-05-11T06:40:22.495Z,15.00
2018-05-11T06:41:25.026Z,14.90
2018-05-11T06:42:27.575Z,15.10
2018-05-11T06:43:30.157Z,15.10
2018-05-11T06:44:32.681Z,15.20
2018-05-11T06:45:35.223Z,15.30
2018-05-11T06:46:38.516Z,15.50
2018-05-11T06:47:41.053Z,15.40
2018-05-11T06:48:44.401Z,15.40
2018-05-11T06:49:46.935Z,15.40
2018-05-11T06:50:49.458Z,15.50
2018-05-11T06:51:51.987Z,15.60
2018-05-11T06:52:54.511Z,15.70
2018-05-11T06:53:57.072Z,15.60
2018-05-11T06:55:00.375Z,15.70
2018-05-11T06:57:11.783Z,15.70
2018-05-11T06:58:14.364Z,15.80
2018-05-11T06:59:16.892Z,15.70
2018-05-11T07:00:19.423Z,15.50
2018-05-11T07:01:21.948Z,15.30
2018-05-11T07:02:24.477Z,15.20
2018-05-11T07:03:27.816Z,15.10
2018-05-11T07:04:30.351Z,15.10
2018-05-11T07:05:32.889Z,14.90
2018-05-11T07:06:36.217Z,14.70
2018-05-11T07:07:38.802Z,14.60
2018-05-11T07:08:41.344Z,14.80
2018-05-11T07:09:43.888Z,14.80
2018-05-11T07:10:46.423Z,15.00
2018-05-11T07:11:48.957Z,15.10
2018-05-11T07:12:51.492Z,15.20
2018-05-11T07:13:54.068Z,15.30
2018-05-11T07:14:56.597Z,15.40
2018-05-11T07:15:59.136Z,15.60
2018-05-11T07:17:01.677Z,15.70
2018-05-11T07:18:04.210Z,15.70
2018-05-11T07:19:07.553Z,15.20
2018-05-11T07:20:10.090Z,15.20
2018-05-11T07:21:12.626Z,15.00
2018-05-11T07:22:15.925Z,14.80
2018-05-11T07:23:18.501Z,14.80
2018-05-11T07:24:21.025Z,14.70
2018-05-11T07:25:23.550Z,14.90
2018-05-11T07:26:26.083Z,14.90
2018-05-11T07:27:28.618Z,15.10
2018-05-11T07:28:31.186Z,15.30
2018-05-11T07:29:33.704Z,15.40
2018-05-11T07:30:36.237Z,15.40
2018-05-11T07:31:39.538Z,15.40
2018-05-11T07:32:42.077Z,15.40
2018-05-11T07:33:45.403Z,15.40
2018-05-11T07:34:47.921Z,15.40
2018-05-11T07:35:50.444Z,15.40
2018-05-11T07:36:52.970Z,15.60
2018-05-11T07:37:56.279Z,15.70
2018-05-11T07:38:58.855Z,15.70
2018-05-11T07:40:01.378Z,15.80
2018-05-11T07:41:04.669Z,16.10
2018-05-11T07:42:07.967Z,16.10
2018-05-11T07:43:10.568Z,16.10
2018-05-11T07:44:13.864Z,16.10
2018-05-11T07:45:16.401Z,16.10
2018-05-11T07:46:18.947Z,15.90
2018-05-11T07:47:21.480Z,15.60
2018-05-11T07:48:24.010Z,15.60
2018-05-11T07:49:26.576Z,15.70
2018-05-11T07:50:29.106Z,15.80
2018-05-11T07:51:32.478Z,16.00
2018-05-11T07:52:34.952Z,16.00
2018-05-11T07:53:37.536Z,16.20
2018-05-11T07:54:40.056Z,16.20
2018-05-11T07:55:42.592Z,16.10
2018-05-11T07:56:45.128Z,16.10
2018-05-11T07:57:47.664Z,16.20
2018-05-11T07:58:50.239Z,16.40
2018-05-11T07:59:52.769Z,16.40
2018-05-11T08:00:55.297Z,16.50
2018-05-11T08:01:57.839Z,16.50
2018-05-11T08:03:01.132Z,16.30
2018-05-11T08:04:04.539Z,16.30
2018-05-11T08:05:06.995Z,16.30
2018-05-11T08:06:09.523Z,16.30
2018-05-11T08:07:12.040Z,16.30
2018-05-11T08:08:14.563Z,16.50
2018-05-11T08:09:17.136Z,16.60
2018-05-11T08:10:20.429Z,16.50
2018-05-11T08:11:23.724Z,16.40
2018-05-11T08:12:26.251Z,16.40
2018-05-11T08:13:28.787Z,16.30
2018-05-11T08:14:31.353Z,16.40
2018-05-11T08:15:33.893Z,16.50
2018-05-11T08:16:36.426Z,16.60
2018-05-11T08:17:38.961Z,16.60
2018-05-11T08:18:41.492Z,16.70
2018-05-11T08:19:44.060Z,16.70
2018-05-11T08:20:46.606Z,16.80
2018-05-11T08:21:50.024Z,17.00
2018-05-11T08:22:52.566Z,17.00
2018-05-11T08:23:55.875Z,16.90
2018-05-11T08:24:58.441Z,16.90
2018-05-11T08:26:00.972Z,16.70
2018-05-11T08:27:03.597Z,16.60
2018-05-11T08:28:06.057Z,16.60
2018-05-11T08:29:08.585Z,16.70
2018-05-11T08:30:11.916Z,16.90
2018-05-11T08:31:14.447Z,16.90
2018-05-11T08:32:17.008Z,16.90
2018-05-11T08:33:20.296Z,16.60
2018-05-11T08:34:22.838Z,16.60
2018-05-11T08:35:26.159Z,16.70
2018-05-11T08:36:28.687Z,16.70
2018-05-11T08:37:32.055Z,16.40
2018-05-11T08:38:35.265Z,16.40
2018-05-11T08:39:38.569Z,16.50
2018-05-11T08:40:41.096Z,16.50
2018-05-11T08:41:43.627Z,16.60
2018-05-11T08:42:46.184Z,16.60
2018-05-11T08:44:57.549Z,16.40
2018-05-11T08:46:00.081Z,16.40
2018-05-11T08:47:02.649Z,16.60
2018-05-11T08:48:05.951Z,16.90
2018-05-11T08:49:09.254Z,17.10
2018-05-11T08:50:11.783Z,17.10
2018-05-11T08:51:14.368Z,17.20
2018-05-11T08:52:16.914Z,17.00
2018-05-11T08:53:19.443Z,17.10
2018-05-11T08:54:21.963Z,17.10
2018-05-11T08:55:25.260Z,17.00
2018-05-11T08:56:27.818Z,17.00
2018-05-11T08:57:31.157Z,17.10
2018-05-11T08:58:33.684Z,17.10
2018-05-11T08:59:36.228Z,17.00
2018-05-11T09:00:39.534Z,17.00
2018-05-11T09:01:42.070Z,17.00
2018-05-11T09:02:45.388Z,17.10
2018-05-11T09:03:47.912Z,17.10
2018-05-11T09:04:50.441Z,17.10
2018-05-11T09:05:52.963Z,17.10
2018-05-11T09:06:55.508Z,17.00
2018-05-11T09:07:58.074Z,17.00
2018-05-11T09:09:00.602Z,16.90
2018-05-11T09:10:03.129Z,16.70
2018-05-11T09:11:06.439Z,16.80
2018-05-11T09:12:09.007Z,16.80
2018-05-11T09:13:11.572Z,17.00
2018-05-11T09:14:14.095Z,17.20
2018-05-11T09:15:16.630Z,17.30
2018-05-11T09:16:19.157Z,17.40
2018-05-11T09:17:21.681Z,17.60
2018-05-11T09:18:24.249Z,17.60
2018-05-11T09:19:26.792Z,17.70
2018-05-11T09:20:29.324Z,17.70
2018-05-11T09:21:31.963Z,17.90
2018-05-11T09:22:35.169Z,18.10
2018-05-11T09:23:37.741Z,18.10
2018-05-11T09:24:40.325Z,18.20
2018-05-11T09:25:42.876Z,18.20
2018-05-11T09:26:45.399Z,18.00
2018-05-11T09:27:47.942Z,18.10
2018-05-11T09:28:50.461Z,18.20
2018-05-11T09:29:53.752Z,18.30
2018-05-11T09:30:56.320Z,18.30
2018-05-11T09:31:58.848Z,18.30
2018-05-11T09:33:01.372Z,18.40
2018-05-11T09:34:03.928Z,18.40
2018-05-11T09:35:06.460Z,18.40
2018-05-11T09:36:09.794Z,18.80
2018-05-11T09:37:12.311Z,18.80
2018-05-11T09:38:15.605Z,18.50
2018-05-11T09:39:18.887Z,18.60
2018-05-11T09:40:22.177Z,18.60
2018-05-11T09:41:25.519Z,18.50
2018-05-11T09:42:28.045Z,18.50
2018-05-11T09:43:30.574Z,18.40
2018-05-11T09:44:33.102Z,18.30
2018-05-11T09:45:35.625Z,18.30
2018-05-11T09:46:38.945Z,18.10
2018-05-11T09:47:41.489Z,18.10
2018-05-11T09:48:44.028Z,18.10
2018-05-11T09:49:47.339Z,18.20
2018-05-11T09:50:49.914Z,18.10
2018-05-11T09:51:52.489Z,18.30
2018-05-11T09:52:55.015Z,18.60
2018-05-11T09:53:58.305Z,18.50
2018-05-11T09:55:01.624Z,18.60
2018-05-11T09:56:04.140Z,18.60
2018-05-11T09:57:06.711Z,18.60
2018-05-11T09:58:09.227Z,18.40
2018-05-11T09:59:11.763Z,18.40
2018-05-11T10:00:15.192Z,18.60
2018-05-11T10:01:17.724Z,18.70
2018-05-11T10:02:20.265Z,18.40
2018-05-11T10:03:23.565Z,18.60
2018-05-11T10:04:26.096Z,18.50
2018-05-11T10:05:28.651Z,18.70
2018-05-11T10:06:31.177Z,18.60
2018-05-11T10:07:33.726Z,18.40
2018-05-11T10:08:37.006Z,18.60
2018-05-11T10:09:40.292Z,18.80
2018-05-11T10:10:43.621Z,18.60
2018-05-11T10:11:46.164Z,18.60
2018-05-11T10:12:48.714Z,18.30
2018-05-11T10:13:52.008Z,18.70
2018-05-11T10:14:54.561Z,18.70
2018-05-11T10:15:57.122Z,18.90
2018-05-11T10:17:00.410Z,18.90
2018-05-11T10:18:03.755Z,18.90
2018-05-11T10:19:06.284Z,18.90
2018-05-11T10:20:08.807Z,19.10
2018-05-11T10:21:11.337Z,19.10
2018-05-11T10:22:13.901Z,18.90
2018-05-11T10:23:16.473Z,18.40
2018-05-11T10:24:18.996Z,18.30
2018-05-11T10:25:22.331Z,18.00
2018-05-11T10:26:24.852Z,18.00
2018-05-11T10:27:27.375Z,17.80
2018-05-11T10:28:29.895Z,17.80
2018-05-11T10:29:32.415Z,18.00
2018-05-11T10:30:34.991Z,18.20
2018-05-11T10:31:37.511Z,18.30
2018-05-11T10:32:40.032Z,18.40
2018-05-11T10:33:43.317Z,18.40
2018-05-11T10:34:46.601Z,18.40
2018-05-11T10:35:49.935Z,18.30
2018-05-11T10:36:52.465Z,18.20
2018-05-11T10:37:55.040Z,18.40
2018-05-11T10:38:57.582Z,18.50
2018-05-11T10:40:00.881Z,18.60
2018-05-11T10:41:03.417Z,18.60
2018-05-11T10:42:06.734Z,18.60
2018-05-11T10:43:09.296Z,18.60
2018-05-11T10:44:11.830Z,18.90
2018-05-11T10:45:14.363Z,19.20
2018-05-11T10:46:16.929Z,19.40
2018-05-11T10:47:19.452Z,19.60
2018-05-11T10:48:22.799Z,19.10
2018-05-11T10:49:25.326Z,19.10
2018-05-11T10:50:27.860Z,19.10
2018-05-11T10:51:31.154Z,18.90
2018-05-11T10:52:34.484Z,19.00
2018-05-11T10:53:37.016Z,19.00
2018-05-11T10:54:39.578Z,19.20
2018-05-11T10:55:42.100Z,19.50
2018-05-11T10:56:44.636Z,19.70
2018-05-11T10:57:47.213Z,19.80
2018-05-11T10:58:49.778Z,19.80
2018-05-11T10:59:52.325Z,19.90
2018-05-11T11:00:54.855Z,19.90
2018-05-11T11:01:58.151Z,20.10
2018-05-11T11:03:01.449Z,20.30
2018-05-11T11:04:04.016Z,20.20
2018-05-11T11:05:06.557Z,20.40
2018-05-11T11:06:09.129Z,20.40
2018-05-11T11:07:12.452Z,20.40
2018-05-11T11:08:14.993Z,20.40
2018-05-11T11:09:17.529Z,20.40
2018-05-11T11:10:20.203Z,20.40
2018-05-11T11:11:23.548Z,20.40
2018-05-11T11:12:26.071Z,20.40
2018-05-11T11:13:28.669Z,20.40
2018-05-11T11:14:31.944Z,20.40
2018-05-11T11:15:34.489Z,20.40
2018-05-11T11:16:37.815Z,20.20
2018-05-11T11:17:40.348Z,20.20
2018-05-11T11:18:42.920Z,19.90
2018-05-11T11:19:45.461Z,19.90
2018-05-11T11:20:48.764Z,19.90
2018-05-11T11:21:51.381Z,19.90
2018-05-11T11:22:53.957Z,19.90
2018-05-11T11:23:56.484Z,20.00
2018-05-11T11:24:59.011Z,19.90
2018-05-11T11:26:01.579Z,20.00
2018-05-11T11:27:04.097Z,20.00
2018-05-11T11:28:06.679Z,20.10
2018-05-11T11:29:09.221Z,20.20
2018-05-11T11:30:11.761Z,20.20
2018-05-11T11:31:14.299Z,20.10
2018-05-11T11:32:16.833Z,20.20
2018-05-11T11:33:19.435Z,20.40
2018-05-11T11:34:22.027Z,20.60
2018-05-11T11:35:24.510Z,20.30
2018-05-11T11:36:27.046Z,20.10
2018-05-11T11:37:29.611Z,20.00
2018-05-11T11:38:32.945Z,20.30
2018-05-11T11:39:35.467Z,20.30
2018-05-11T11:40:38.829Z,20.50
2018-05-11T11:41:41.375Z,20.50
2018-05-11T11:42:43.912Z,20.50
2018-05-11T11:43:46.482Z,20.40
2018-05-11T11:44:49.024Z,20.30
2018-05-11T11:45:51.565Z,20.40
2018-05-11T11:46:54.911Z,20.70
2018-05-11T11:47:57.450Z,20.70
2018-05-11T11:49:00.007Z,20.80
2018-05-11T11:50:03.309Z,20.90
2018-05-11T11:51:05.903Z,20.80
2018-05-11T11:52:08.445Z,20.80
2018-05-11T11:53:10.989Z,20.60
2018-05-11T11:54:13.521Z,20.60
2018-05-11T11:55:16.099Z,20.50
2018-05-11T11:56:18.638Z,20.60
2018-05-11T11:57:21.212Z,20.50
2018-05-11T11:58:23.752Z,20.50
2018-05-11T11:59:26.285Z,20.10
2018-05-11T12:00:29.592Z,20.20
2018-05-11T12:01:32.182Z,20.20
2018-05-11T12:02:34.744Z,20.10
2018-05-11T12:03:37.285Z,19.90
2018-05-11T12:04:39.820Z,19.70
2018-05-11T12:05:42.354Z,19.30
2018-05-11T12:06:44.909Z,19.30
2018-05-11T12:07:47.433Z,19.50
2018-05-11T12:08:50.801Z,19.30
2018-05-11T12:09:54.109Z,19.40
2018-05-11T12:10:56.653Z,19.40
2018-05-11T12:11:59.179Z,19.60
2018-05-11T12:13:01.724Z,19.70
2018-05-11T12:14:04.309Z,19.70
2018-05-11T12:15:06.845Z,19.40
2018-05-11T12:16:09.390Z,19.20
2018-05-11T12:17:12.689Z,19.30
2018-05-11T12:18:15.987Z,19.10
2018-05-11T12:19:18.555Z,19.10
2018-05-11T12:20:21.095Z,19.20
2018-05-11T12:21:24.388Z,19.00
2018-05-11T12:22:27.681Z,19.10
2018-05-11T12:23:30.211Z,19.20
2018-05-11T12:24:32.790Z,19.30
2018-05-11T12:25:35.314Z,19.50
2018-05-11T12:26:37.853Z,19.60
2018-05-11T12:27:40.379Z,19.80
2018-05-11T12:28:42.903Z,19.70
2018-05-11T12:29:45.484Z,19.50
2018-05-11T12:30:48.024Z,19.40
2018-05-11T12:31:50.561Z,19.40
2018-05-11T12:32:53.868Z,19.70
2018-05-11T12:33:56.400Z,19.70
2018-05-11T12:34:59.742Z,19.80
2018-05-11T12:36:02.303Z,19.80
2018-05-11T12:37:04.833Z,19.80
2018-05-11T12:38:08.172Z,20.10
2018-05-11T12:39:10.704Z,20.10
2018-05-11T12:40:13.228Z,20.30
2018-05-11T12:41:15.781Z,20.30
2018-05-11T12:42:18.355Z,20.40
2018-05-11T12:43:20.900Z,20.40
2018-05-11T12:44:24.219Z,20.70
2018-05-11T12:45:26.761Z,20.70
2018-05-11T12:46:29.388Z,20.80
2018-05-11T12:47:32.659Z,20.90
2018-05-11T12:48:35.197Z,20.90
2018-05-11T12:49:37.724Z,20.90
2018-05-11T12:50:40.256Z,20.70
2018-05-11T12:51:42.867Z,20.80
2018-05-11T12:52:45.471Z,21.00
2018-05-11T12:53:47.958Z,21.20
2018-05-11T12:54:50.500Z,21.60
2018-05-11T12:55:53.028Z,21.70
2018-05-11T12:56:55.584Z,21.60
2018-05-11T12:57:58.124Z,21.70
2018-05-11T12:59:01.461Z,21.40
2018-05-11T13:00:04.088Z,21.40
2018-05-11T13:01:06.708Z,21.40
2018-05-11T13:02:09.284Z,21.10
2018-05-11T13:03:11.818Z,20.90
2018-05-11T13:04:14.344Z,20.80
2018-05-11T13:05:17.633Z,20.50
2018-05-11T13:06:20.177Z,20.50
2018-05-11T13:07:23.513Z,20.90
2018-05-11T13:08:26.038Z,20.90
2018-05-11T13:09:29.471Z,21.10
2018-05-11T13:10:32.069Z,21.10
2018-05-11T13:11:34.603Z,21.00
2018-05-11T13:12:37.165Z,20.70
2018-05-11T13:13:39.687Z,20.50
2018-05-11T13:14:42.985Z,20.00
2018-05-11T13:15:45.557Z,19.90
2018-05-11T13:16:48.098Z,20.10
2018-05-11T13:17:51.396Z,20.70
2018-05-11T13:18:54.687Z,20.80
2018-05-11T13:19:57.243Z,20.80
2018-05-11T13:21:00.584Z,21.20
2018-05-11T13:22:03.107Z,21.20
2018-05-11T13:23:05.644Z,20.90
2018-05-11T13:24:08.172Z,20.80
2018-05-11T13:25:10.724Z,20.70
2018-05-11T13:26:13.283Z,20.90
2018-05-11T13:27:15.821Z,20.80
2018-05-11T13:28:19.193Z,20.70
2018-05-11T13:29:21.770Z,20.70
2018-05-11T13:30:25.115Z,20.60
2018-05-11T13:31:27.618Z,20.50
2018-05-11T13:32:30.146Z,20.40
2018-05-11T13:33:32.740Z,20.30
2018-05-11T13:34:35.262Z,20.30